createdAt,value
2023-03-08T00:02:17.889Z,1.80
2023-03-08T00:04:44.669Z,1.80
2023-03-08T00:07:11.474Z,1.80
2023-03-08T00:09:38.960Z,1.70
2023-03-08T00:12:07.456Z,1.70
2023-03-08T00:14:34.211Z,1.80
2023-03-08T00:17:02.533Z,1.70
2023-03-08T00:19:29.508Z,1.70
2023-03-08T00:21:56.420Z,1.70
2023-03-08T00:24:23.217Z,1.70
2023-03-08T00:26:49.929Z,1.60
2023-03-08T00:29:16.714Z,1.60
2023-03-08T00:31:43.540Z,1.60
2023-03-08T00:34:10.341Z,1.60
2023-03-08T00:36:37.050Z,1.50
2023-03-08T00:39:03.886Z,1.50
2023-03-08T00:41:30.693Z,1.50
2023-03-08T00:43:57.413Z,1.50
2023-03-08T00:46:25.985Z,1.40
2023-03-08T00:48:52.782Z,1.40
2023-03-08T00:51:20.564Z,1.40
2023-03-08T00:53:47.877Z,1.40
2023-03-08T00:56:14.723Z,1.30
2023-03-08T00:58:42.177Z,1.30
2023-03-08T01:01:14.170Z,1.30
2023-03-08T01:03:41.131Z,1.30
2023-03-08T01:06:10.853Z,1.20
2023-03-08T01:08:39.973Z,1.20
2023-03-08T01:11:06.780Z,1.20
2023-03-08T01:13:35.782Z,1.20
2023-03-08T01:16:03.064Z,1.10
2023-03-08T01:18:29.751Z,1.10
2023-03-08T01:21:02.532Z,1.10
2023-03-08T01:23:29.564Z,1.10
2023-03-08T01:26:04.828Z,1.10
2023-03-08T01:28:31.874Z,1.10
2023-03-08T01:31:09.617Z,1.10
2023-03-08T01:33:36.345Z,1.10
2023-03-08T01:36:07.757Z,1.00
2023-03-08T01:38:35.284Z,1.00
2023-03-08T01:41:02.979Z,1.00
2023-03-08T01:43:33.815Z,1.00
2023-03-08T01:46:06.455Z,1.00
2023-03-08T01:48:44.248Z,1.00
2023-03-08T01:51:14.430Z,1.00
2023-03-08T01:53:42.446Z,0.90
2023-03-08T01:56:12.862Z,0.90
2023-03-08T01:58:41.920Z,0.90
2023-03-08T02:01:08.781Z,0.90
2023-03-08T02:03:35.552Z,0.90
2023-03-08T02:06:04.089Z,0.90
2023-03-08T02:08:32.952Z,0.90
2023-03-08T02:11:00.656Z,0.90
2023-03-08T02:13:28.187Z,0.90
2023-03-08T02:15:57.231Z,0.90
2023-03-08T02:18:24.145Z,0.80
2023-03-08T02:20:50.867Z,0.80
2023-03-08T02:23:19.043Z,0.80
2023-03-08T02:25:56.648Z,0.80
2023-03-08T02:28:25.989Z,0.80
2023-03-08T02:30:53.777Z,0.80
2023-03-08T02:33:20.599Z,0.80
2023-03-08T02:35:47.397Z,0.80
2023-03-08T02:38:17.754Z,0.80
2023-03-08T02:40:45.226Z,0.80
2023-03-08T02:43:12.176Z,0.80
2023-03-08T02:45:38.916Z,0.80
2023-03-08T02:48:06.483Z,0.80
2023-03-08T02:50:33.206Z,0.80
2023-03-08T02:52:59.906Z,0.80
2023-03-08T02:55:27.419Z,0.80
2023-03-08T02:57:54.328Z,0.80
2023-03-08T03:00:21.289Z,0.90
2023-03-08T03:02:48.554Z,0.90
2023-03-08T03:05:15.274Z,0.90
2023-03-08T03:07:43.356Z,0.90
2023-03-08T03:10:12.246Z,0.90
2023-03-08T03:12:39.842Z,0.90
2023-03-08T03:15:08.815Z,0.90
2023-03-08T03:17:36.968Z,0.90
2023-03-08T03:20:09.270Z,0.90
2023-03-08T03:22:36.720Z,0.90
2023-03-08T03:25:04.142Z,1.00
2023-03-08T03:27:30.866Z,0.90
2023-03-08T03:29:57.620Z,1.00
2023-03-08T03:32:24.497Z,1.00
2023-03-08T03:34:51.340Z,1.00
2023-03-08T03:37:18.221Z,1.00
2023-03-08T03:39:45.071Z,1.00
2023-03-08T03:42:11.978Z,1.00
2023-03-08T03:44:38.798Z,1.00
2023-03-08T03:47:06.095Z,1.00
2023-03-08T03:49:32.818Z,1.00
2023-03-08T03:51:59.785Z,1.10
2023-03-08T03:54:27.424Z,1.00
2023-03-08T03:56:58.077Z,1.10
2023-03-08T03:59:26.721Z,1.10
2023-03-08T04:01:53.596Z,1.10
2023-03-08T04:04:20.560Z,1.10
2023-03-08T04:06:47.821Z,1.10
2023-03-08T04:09:16.986Z,1.10
2023-03-08T04:11:43.762Z,1.10
2023-03-08T04:14:10.586Z,1.10
2023-03-08T04:16:39.986Z,1.10
2023-03-08T04:19:15.735Z,1.10
2023-03-08T04:21:42.810Z,1.10
2023-03-08T04:24:09.589Z,1.10
2023-03-08T04:26:36.384Z,1.10
2023-03-08T04:29:06.130Z,1.10
2023-03-08T04:31:35.110Z,1.10
2023-03-08T04:34:03.173Z,1.10
2023-03-08T04:36:30.459Z,1.10
2023-03-08T04:38:57.382Z,1.00
2023-03-08T04:41:26.284Z,1.00
2023-03-08T04:43:55.106Z,1.00
2023-03-08T04:46:27.887Z,1.00
2023-03-08T04:48:56.202Z,1.00
2023-03-08T04:51:26.876Z,1.00
2023-03-08T04:53:54.094Z,1.00
2023-03-08T04:56:20.914Z,1.00
2023-03-08T04:58:47.862Z,1.00
2023-03-08T05:01:17.620Z,1.00
2023-03-08T05:03:45.449Z,1.00
2023-03-08T05:06:14.273Z,0.90
2023-03-08T05:08:41.616Z,0.90
2023-03-08T05:11:08.933Z,0.90
2023-03-08T05:13:38.522Z,0.90
2023-03-08T05:16:06.997Z,0.90
2023-03-08T05:18:34.083Z,0.90
2023-03-08T05:21:04.454Z,1.00
2023-03-08T05:23:31.932Z,1.00
2023-03-08T05:26:00.387Z,1.00
2023-03-08T05:28:30.074Z,1.00
2023-03-08T05:31:11.978Z,1.00
2023-03-08T05:33:39.741Z,1.00
2023-03-08T05:36:07.893Z,1.00
2023-03-08T05:38:35.079Z,1.00
2023-03-08T05:41:09.327Z,1.00
2023-03-08T05:43:36.106Z,1.00
2023-03-08T05:46:06.888Z,1.00
2023-03-08T05:48:35.417Z,1.00
2023-03-08T05:51:10.168Z,0.90
2023-03-08T05:53:37.204Z,0.90
2023-03-08T05:56:12.220Z,0.90
2023-03-08T05:58:41.463Z,0.90
2023-03-08T06:01:18.112Z,0.90
2023-03-08T06:03:46.510Z,0.90
2023-03-08T06:06:13.708Z,0.90
2023-03-08T06:08:40.827Z,0.90
2023-03-08T06:11:07.862Z,0.90
2023-03-08T06:13:35.144Z,0.90
2023-03-08T06:16:02.924Z,0.90
2023-03-08T06:18:29.697Z,0.90
2023-03-08T06:21:01.610Z,1.00
2023-03-08T06:23:30.148Z,1.00
2023-03-08T06:25:57.708Z,1.00
2023-03-08T06:28:25.868Z,1.00
2023-03-08T06:30:53.313Z,1.10
2023-03-08T06:33:22.290Z,1.10
2023-03-08T06:35:59.655Z,1.10
2023-03-08T06:38:29.676Z,1.10
2023-03-08T06:40:57.080Z,1.10
2023-03-08T06:43:25.663Z,1.20
2023-03-08T06:45:52.510Z,1.20
2023-03-08T06:48:19.853Z,1.20
2023-03-08T06:50:47.098Z,1.20
2023-03-08T06:53:14.314Z,1.30
2023-03-08T06:55:41.902Z,1.40
2023-03-08T06:58:09.732Z,1.40
2023-03-08T07:00:36.656Z,1.40
2023-03-08T07:03:03.458Z,1.40
2023-03-08T07:05:30.160Z,1.50
2023-03-08T07:07:56.939Z,1.50
2023-03-08T07:10:23.946Z,1.50
2023-03-08T07:12:51.611Z,1.50
2023-03-08T07:15:22.994Z,1.60
2023-03-08T07:17:52.224Z,1.60
2023-03-08T07:20:20.357Z,1.60
2023-03-08T07:22:47.422Z,1.60
2023-03-08T07:25:16.324Z,1.60
2023-03-08T07:27:43.639Z,1.60
2023-03-08T07:30:12.402Z,1.60
2023-03-08T07:32:40.891Z,1.60
2023-03-08T07:35:09.894Z,1.60
2023-03-08T07:37:36.964Z,1.60
2023-03-08T07:40:07.646Z,1.70
2023-03-08T07:42:34.583Z,1.70
2023-03-08T07:45:01.324Z,1.80
2023-03-08T07:47:28.136Z,1.80
2023-03-08T07:49:54.854Z,1.80
2023-03-08T07:52:21.593Z,1.80
2023-03-08T07:54:48.347Z,1.80
2023-03-08T07:57:15.736Z,1.90
2023-03-08T07:59:42.464Z,1.90
2023-03-08T08:02:15.507Z,1.90
2023-03-08T08:04:42.477Z,1.90
2023-03-08T08:07:13.323Z,2.00
2023-03-08T08:09:40.181Z,2.00
2023-03-08T08:12:07.145Z,2.00
2023-03-08T08:14:33.916Z,2.00
2023-03-08T08:17:00.907Z,2.10
2023-03-08T08:19:27.717Z,2.20
2023-03-08T08:21:54.453Z,2.30
2023-03-08T08:24:21.169Z,2.30
2023-03-08T08:26:47.941Z,2.30
2023-03-08T08:29:14.925Z,2.30
2023-03-08T08:31:41.745Z,2.40
2023-03-08T08:34:08.853Z,2.50
2023-03-08T08:36:35.772Z,2.60
2023-03-08T08:39:02.950Z,2.70
2023-03-08T08:41:30.557Z,2.70
2023-03-08T08:43:59.542Z,2.80
2023-03-08T08:46:31.749Z,2.90
2023-03-08T08:48:59.155Z,3.00
2023-03-08T08:51:26.443Z,2.90
2023-03-08T08:53:54.196Z,2.90
2023-03-08T08:56:27.100Z,2.90
2023-03-08T08:59:04.807Z,3.00
2023-03-08T09:01:34.427Z,3.10
2023-03-08T09:04:01.206Z,3.20
2023-03-08T09:06:29.265Z,3.30
2023-03-08T09:08:58.239Z,3.40
2023-03-08T09:11:26.276Z,3.60
2023-03-08T09:13:53.957Z,3.70
2023-03-08T09:16:27.981Z,3.60
2023-03-08T09:18:58.822Z,3.70
2023-03-08T09:21:26.897Z,3.70
2023-03-08T09:23:54.094Z,3.70
2023-03-08T09:26:21.179Z,3.70
2023-03-08T09:28:48.095Z,3.70
2023-03-08T09:31:17.085Z,3.70
2023-03-08T09:33:46.871Z,3.60
2023-03-08T09:36:13.606Z,3.60
2023-03-08T09:38:40.839Z,3.60
2023-03-08T09:41:21.715Z,3.40
2023-03-08T09:44:04.955Z,3.30
2023-03-08T09:46:38.412Z,3.20
2023-03-08T09:49:13.439Z,3.10
2023-03-08T09:51:44.480Z,3.00
2023-03-08T09:54:17.118Z,3.00
2023-03-08T09:56:51.530Z,3.00
2023-03-08T09:59:26.858Z,3.00
2023-03-08T10:01:59.065Z,3.00
2023-03-08T10:05:09.829Z,3.10
2023-03-08T10:07:48.573Z,3.10
2023-03-08T10:10:38.054Z,3.20
2023-03-08T10:13:23.640Z,3.20
2023-03-08T10:15:53.977Z,3.30
2023-03-08T10:18:47.022Z,3.30
2023-03-08T10:21:17.493Z,3.40
2023-03-08T10:23:52.610Z,3.50
2023-03-08T10:26:19.973Z,3.50
2023-03-08T10:28:46.753Z,3.50
2023-03-08T10:31:24.850Z,3.60
2023-03-08T10:33:58.457Z,3.60
2023-03-08T10:36:26.175Z,3.70
2023-03-08T10:39:05.300Z,3.70
2023-03-08T10:41:36.853Z,3.70
2023-03-08T10:44:04.066Z,3.70
2023-03-08T10:46:32.911Z,3.60
2023-03-08T10:49:14.735Z,3.70
2023-03-08T10:51:52.389Z,3.80
2023-03-08T10:54:19.085Z,3.90
2023-03-08T10:56:53.547Z,4.10
2023-03-08T10:59:28.098Z,4.20
2023-03-08T11:02:00.105Z,4.40
2023-03-08T11:04:29.727Z,4.40
2023-03-08T11:06:56.848Z,4.50
2023-03-08T11:09:29.407Z,4.60
2023-03-08T11:11:58.298Z,4.70
2023-03-08T11:14:27.961Z,4.80
2023-03-08T11:17:15.669Z,4.90
2023-03-08T11:20:06.290Z,4.90
2023-03-08T11:23:02.141Z,4.80
2023-03-08T11:25:50.532Z,4.70
2023-03-08T11:28:44.615Z,4.80
2023-03-08T11:31:24.648Z,4.90
2023-03-08T11:34:16.237Z,5.20
2023-03-08T11:37:16.760Z,5.40
2023-03-08T11:39:48.920Z,5.30
2023-03-08T11:42:20.688Z,5.30
2023-03-08T11:45:02.197Z,5.40
2023-03-08T11:47:53.321Z,5.60
2023-03-08T11:50:23.247Z,5.70
2023-03-08T11:53:16.058Z,5.90
2023-03-08T11:56:07.480Z,6.10
2023-03-08T11:58:42.708Z,6.40
2023-03-08T12:01:32.572Z,6.70
2023-03-08T12:04:08.017Z,6.90
2023-03-08T12:06:45.505Z,7.00
2023-03-08T12:09:12.268Z,7.00
2023-03-08T12:11:44.700Z,7.30
2023-03-08T12:14:23.582Z,7.60
2023-03-08T12:16:56.477Z,7.90
2023-03-08T12:19:46.591Z,7.80
2023-03-08T12:22:25.336Z,7.70
2023-03-08T12:24:54.804Z,8.00
2023-03-08T12:27:43.833Z,8.20
2023-03-08T12:30:10.523Z,8.20
2023-03-08T12:32:39.612Z,7.90
2023-03-08T12:35:28.457Z,7.50
2023-03-08T12:38:20.001Z,7.20
2023-03-08T12:40:51.633Z,6.70
2023-03-08T12:43:21.054Z,6.40
2023-03-08T12:46:09.409Z,6.20
2023-03-08T12:48:46.780Z,6.20
2023-03-08T12:51:14.168Z,6.10
2023-03-08T12:53:56.087Z,6.10
2023-03-08T12:56:50.549Z,6.00
2023-03-08T12:59:17.230Z,6.00
2023-03-08T13:01:59.826Z,5.90
2023-03-08T13:04:41.909Z,5.80
2023-03-08T13:07:20.205Z,5.80
2023-03-08T13:10:21.126Z,5.70
2023-03-08T13:13:38.090Z,5.70
2023-03-08T13:16:32.929Z,5.80
2023-03-08T13:19:15.035Z,5.70
2023-03-08T13:22:00.410Z,5.70
2023-03-08T13:24:42.079Z,5.80
2023-03-08T13:27:39.483Z,6.30
2023-03-08T13:30:30.692Z,7.20
2023-03-08T13:32:58.439Z,7.50
2023-03-08T13:35:25.400Z,7.50
2023-03-08T13:37:58.952Z,7.30
2023-03-08T13:40:28.114Z,6.90
2023-03-08T13:43:00.462Z,6.60
2023-03-08T13:45:27.618Z,6.40
2023-03-08T13:47:57.308Z,6.10
2023-03-08T13:50:36.837Z,6.00
2023-03-08T13:53:10.112Z,6.10
2023-03-08T13:55:44.264Z,6.30
2023-03-08T13:58:31.075Z,6.60
2023-03-08T14:01:02.111Z,6.80
2023-03-08T14:03:31.980Z,6.90
2023-03-08T14:05:59.312Z,7.00
2023-03-08T14:08:27.741Z,7.00
2023-03-08T14:11:05.213Z,7.10
2023-03-08T14:13:38.253Z,6.90
2023-03-08T14:16:09.440Z,6.70
2023-03-08T14:18:39.279Z,6.50
2023-03-08T14:21:14.525Z,6.40
2023-03-08T14:23:46.014Z,6.20
2023-03-08T14:26:38.192Z,6.20
2023-03-08T14:29:13.068Z,6.30
2023-03-08T14:31:51.798Z,6.40
2023-03-08T14:34:21.696Z,6.50
2023-03-08T14:37:00.543Z,6.50
2023-03-08T14:39:29.498Z,6.50
2023-03-08T14:41:56.723Z,6.40
2023-03-08T14:44:28.236Z,6.30
2023-03-08T14:46:58.751Z,6.30
2023-03-08T14:49:28.543Z,6.20
2023-03-08T14:51:55.923Z,6.20
2023-03-08T14:54:38.503Z,6.00
2023-03-08T14:57:28.510Z,5.80
2023-03-08T15:00:07.671Z,5.60
2023-03-08T15:02:35.607Z,5.40
2023-03-08T15:05:02.685Z,5.30
2023-03-08T15:07:33.877Z,5.20
2023-03-08T15:10:02.752Z,5.10
2023-03-08T15:12:29.472Z,5.00
2023-03-08T15:14:56.177Z,4.90
2023-03-08T15:17:22.960Z,4.90
2023-03-08T15:19:49.792Z,4.80
2023-03-08T15:22:17.427Z,4.70
2023-03-08T15:24:44.137Z,4.70
2023-03-08T15:27:15.815Z,4.60
2023-03-08T15:29:42.526Z,4.60
2023-03-08T15:32:09.286Z,4.50
2023-03-08T15:34:36.127Z,4.50
2023-03-08T15:37:02.924Z,4.50
2023-03-08T15:39:29.856Z,4.40
2023-03-08T15:41:56.556Z,4.40
2023-03-08T15:44:23.295Z,4.40
2023-03-08T15:46:52.604Z,4.30
2023-03-08T15:49:19.659Z,4.30
2023-03-08T15:51:46.390Z,4.30
2023-03-08T15:54:13.198Z,4.20
2023-03-08T15:56:39.986Z,4.20
2023-03-08T15:59:06.811Z,4.20
2023-03-08T16:01:33.549Z,4.20
2023-03-08T16:04:00.406Z,4.20
2023-03-08T16:06:27.328Z,4.20
2023-03-08T16:08:54.278Z,4.20
2023-03-08T16:11:22.425Z,4.10
2023-03-08T16:13:51.659Z,4.10
2023-03-08T16:16:19.037Z,4.10
2023-03-08T16:18:46.073Z,4.10
2023-03-08T16:21:12.886Z,4.00
2023-03-08T16:23:41.661Z,4.10
2023-03-08T16:26:17.881Z,4.00
2023-03-08T16:28:46.934Z,3.90
2023-03-08T16:31:15.482Z,3.80
2023-03-08T16:33:42.630Z,3.60
2023-03-08T16:36:10.683Z,3.60
2023-03-08T16:38:37.550Z,3.50
2023-03-08T16:41:13.903Z,3.40
2023-03-08T16:43:47.669Z,3.40
2023-03-08T16:46:20.424Z,3.30
2023-03-08T16:48:54.283Z,3.30
2023-03-08T16:51:23.048Z,3.20
2023-03-08T16:53:49.914Z,3.20
2023-03-08T16:56:24.987Z,3.20
2023-03-08T16:58:53.184Z,3.20
2023-03-08T17:01:21.090Z,3.20
2023-03-08T17:03:48.024Z,3.20
2023-03-08T17:06:17.090Z,3.10
2023-03-08T17:08:43.816Z,3.20
2023-03-08T17:11:19.516Z,3.20
2023-03-08T17:13:51.082Z,3.20
2023-03-08T17:16:20.480Z,3.20
2023-03-08T17:18:48.478Z,3.20
2023-03-08T17:21:15.710Z,3.20
2023-03-08T17:23:42.768Z,3.20
2023-03-08T17:26:11.347Z,3.30
2023-03-08T17:28:39.110Z,3.30
2023-03-08T17:31:14.348Z,3.30
2023-03-08T17:33:41.924Z,3.30
2023-03-08T17:36:09.917Z,3.30
2023-03-08T17:38:37.009Z,3.30
2023-03-08T17:41:08.828Z,3.20
2023-03-08T17:43:35.617Z,3.20
2023-03-08T17:46:05.418Z,3.10
2023-03-08T17:48:33.169Z,3.10
2023-03-08T17:51:12.266Z,3.00
2023-03-08T17:53:39.946Z,3.00
2023-03-08T17:56:09.196Z,2.90
2023-03-08T17:58:36.851Z,2.90
2023-03-08T18:01:30.737Z,2.90
2023-03-08T18:03:58.045Z,2.80
2023-03-08T18:06:34.832Z,2.80
2023-03-08T18:09:08.713Z,2.80
2023-03-08T18:11:37.785Z,2.80
2023-03-08T18:14:06.174Z,2.70
2023-03-08T18:16:33.594Z,2.70
2023-03-08T18:19:02.466Z,2.70
2023-03-08T18:21:31.442Z,2.80
2023-03-08T18:23:58.823Z,2.80
2023-03-08T18:26:25.885Z,2.80
2023-03-08T18:28:52.691Z,2.70
2023-03-08T18:31:23.392Z,2.80
2023-03-08T18:33:50.324Z,2.70
2023-03-08T18:36:18.044Z,2.70
2023-03-08T18:38:45.033Z,2.70
2023-03-08T18:41:17.693Z,2.70
2023-03-08T18:43:45.283Z,2.70
2023-03-08T18:46:13.376Z,2.70
2023-03-08T18:48:40.982Z,2.70
2023-03-08T18:51:07.741Z,2.70
2023-03-08T18:53:34.849Z,2.70
2023-03-08T18:56:03.803Z,2.60
2023-03-08T18:58:31.296Z,2.60
2023-03-08T19:00:59.152Z,2.60
2023-03-08T19:03:27.002Z,2.60
2023-03-08T19:05:53.744Z,2.70
2023-03-08T19:08:20.605Z,2.60
2023-03-08T19:10:47.321Z,2.60
2023-03-08T19:13:14.075Z,2.60
2023-03-08T19:15:40.834Z,2.60
2023-03-08T19:18:07.595Z,2.70
2023-03-08T19:20:39.179Z,2.70
2023-03-08T19:23:06.071Z,2.70
2023-03-08T19:25:34.554Z,2.70
2023-03-08T19:28:01.282Z,2.70
2023-03-08T19:30:28.538Z,2.60
2023-03-08T19:32:56.510Z,2.70
2023-03-08T19:35:23.699Z,2.60
2023-03-08T19:37:50.652Z,2.70
2023-03-08T19:40:17.833Z,2.60
2023-03-08T19:42:44.576Z,2.60
2023-03-08T19:45:12.136Z,2.60
2023-03-08T19:47:38.944Z,2.60
2023-03-08T19:50:06.096Z,2.70
2023-03-08T19:52:33.062Z,2.60
2023-03-08T19:54:59.860Z,2.60
2023-03-08T19:57:26.844Z,2.60
2023-03-08T19:59:53.652Z,2.60
2023-03-08T20:02:20.337Z,2.60
2023-03-08T20:04:47.173Z,2.60
2023-03-08T20:07:13.929Z,2.60
2023-03-08T20:09:42.356Z,2.60
2023-03-08T20:12:09.793Z,2.60
2023-03-08T20:14:36.872Z,2.60
2023-03-08T20:17:05.260Z,2.60
2023-03-08T20:19:33.885Z,2.60
2023-03-08T20:22:01.019Z,2.60
2023-03-08T20:24:28.244Z,2.60
2023-03-08T20:26:55.106Z,2.60
2023-03-08T20:29:22.261Z,2.60
2023-03-08T20:31:49.959Z,2.60
2023-03-08T20:34:17.672Z,2.50
2023-03-08T20:36:44.595Z,2.50
2023-03-08T20:39:11.379Z,2.50
2023-03-08T20:41:38.109Z,2.50
2023-03-08T20:44:04.938Z,2.50
2023-03-08T20:46:33.586Z,2.50
2023-03-08T20:49:01.037Z,2.40
2023-03-08T20:51:28.304Z,2.50
2023-03-08T20:53:55.613Z,2.50
2023-03-08T20:56:24.618Z,2.40
2023-03-08T20:58:54.508Z,2.40
2023-03-08T21:01:25.570Z,2.50
2023-03-08T21:03:52.424Z,2.40
2023-03-08T21:06:30.751Z,2.40
2023-03-08T21:08:58.643Z,2.40
2023-03-08T21:11:25.615Z,2.40
2023-03-08T21:13:53.442Z,2.40
2023-03-08T21:16:22.374Z,2.40
2023-03-08T21:18:53.881Z,2.40
2023-03-08T21:21:24.274Z,2.40
2023-03-08T21:23:54.293Z,2.40
2023-03-08T21:26:25.768Z,2.30
2023-03-08T21:28:58.074Z,2.40
2023-03-08T21:31:25.245Z,2.40
2023-03-08T21:33:53.497Z,2.30
2023-03-08T21:36:20.596Z,2.30
2023-03-08T21:38:55.995Z,2.30
2023-03-08T21:41:25.828Z,2.30
2023-03-08T21:43:52.747Z,2.30
2023-03-08T21:46:20.227Z,2.20
2023-03-08T21:48:47.499Z,2.20
2023-03-08T21:51:14.860Z,2.20
2023-03-08T21:53:43.082Z,2.20
2023-03-08T21:56:15.587Z,2.20
2023-03-08T21:58:43.450Z,2.20
2023-03-08T22:01:29.246Z,2.20
2023-03-08T22:03:56.645Z,2.20
2023-03-08T22:06:23.795Z,2.20
2023-03-08T22:08:50.857Z,2.20
2023-03-08T22:11:19.293Z,2.20
2023-03-08T22:13:54.942Z,2.20
2023-03-08T22:16:21.830Z,2.20
2023-03-08T22:18:53.044Z,2.20
2023-03-08T22:21:20.429Z,2.20
2023-03-08T22:23:51.583Z,2.20
2023-03-08T22:26:19.506Z,2.20
2023-03-08T22:28:46.621Z,2.20
2023-03-08T22:31:16.593Z,2.10
2023-03-08T22:33:43.889Z,2.10
2023-03-08T22:36:12.891Z,2.10
2023-03-08T22:38:40.434Z,2.10
2023-03-08T22:41:27.039Z,2.10
2023-03-08T22:43:54.040Z,2.10
2023-03-08T22:46:24.874Z,2.10
2023-03-08T22:48:52.677Z,2.00
2023-03-08T22:51:21.388Z,2.00
2023-03-08T22:53:48.501Z,2.00
2023-03-08T22:56:29.571Z,2.00
2023-03-08T22:58:57.179Z,2.00
2023-03-08T23:01:24.853Z,2.00
2023-03-08T23:03:56.699Z,2.10
2023-03-08T23:06:28.023Z,2.00
2023-03-08T23:08:59.314Z,2.00
2023-03-08T23:11:27.027Z,2.00
2023-03-08T23:13:54.614Z,2.00
2023-03-08T23:16:21.744Z,2.00
2023-03-08T23:18:50.745Z,2.00
2023-03-08T23:21:19.593Z,2.00
2023-03-08T23:27:29.103Z,2.00
2023-03-08T23:29:56.342Z,2.00
2023-03-08T23:32:23.205Z,1.90
2023-03-08T23:34:50.676Z,1.90
2023-03-08T23:37:17.547Z,1.90
2023-03-08T23:39:44.458Z,1.90
2023-03-08T23:42:11.203Z,1.80
2023-03-08T23:44:38.193Z,1.80
2023-03-08T23:47:05.071Z,1.80
2023-03-08T23:49:31.815Z,1.80
2023-03-08T23:51:58.537Z,1.80
2023-03-08T23:54:25.396Z,1.80
2023-03-08T23:56:52.191Z,1.70
2023-03-08T23:59:21.700Z,1.70
